createdAt,value
2018-02-17T00:02:10.815Z,58.43
2018-02-17T00:04:39.285Z,62.20
2018-02-17T00:07:07.795Z,62.37
2018-02-17T00:09:36.334Z,62.20
2018-02-17T00:12:04.849Z,63.93
2018-02-17T00:14:33.354Z,59.57
2018-02-17T00:17:01.818Z,58.73
2018-02-17T00:19:30.314Z,57.37
2018-02-17T00:21:58.794Z,57.83
2018-02-17T00:24:27.318Z,59.90
2018-02-17T00:26:55.802Z,63.40
2018-02-17T00:29:24.381Z,60.67
2018-02-17T00:31:52.844Z,61.77
2018-02-17T00:34:21.322Z,60.30
2018-02-17T00:36:49.835Z,62.50
2018-02-17T00:39:18.299Z,63.20
2018-02-17T00:41:46.820Z,56.40
2018-02-17T00:44:15.291Z,55.97
2018-02-17T00:46:43.795Z,60.63
2018-02-17T00:49:12.282Z,59.47
2018-02-17T00:51:40.808Z,62.87
2018-02-17T00:54:09.314Z,55.93
2018-02-17T00:56:37.785Z,56.63
2018-02-17T00:59:06.302Z,59.77
2018-02-17T01:01:34.805Z,62.60
2018-02-17T01:04:03.331Z,59.67
2018-02-17T01:06:31.806Z,61.43
2018-02-17T01:09:00.306Z,65.63
2018-02-17T01:11:28.787Z,62.83
2018-02-17T01:13:57.310Z,62.47
2018-02-17T01:16:25.813Z,63.03
2018-02-17T01:18:54.290Z,58.40
2018-02-17T01:21:22.798Z,60.03
2018-02-17T01:23:51.268Z,64.63
2018-02-17T01:26:19.798Z,64.43
2018-02-17T01:28:48.275Z,59.97
2018-02-17T01:31:16.789Z,64.07
2018-02-17T01:33:45.250Z,66.40
2018-02-17T01:36:13.726Z,62.07
2018-02-17T01:38:42.242Z,65.20
2018-02-17T01:41:10.715Z,66.60
2018-02-17T01:43:39.210Z,63.40
2018-02-17T01:46:07.682Z,65.30
2018-02-17T01:48:36.209Z,62.57
2018-02-17T01:51:04.678Z,69.83
2018-02-17T01:53:33.166Z,71.43
2018-02-17T01:56:01.701Z,70.07
2018-02-17T01:58:30.228Z,66.30
2018-02-17T02:00:58.761Z,66.87
2018-02-17T02:03:27.261Z,68.33
2018-02-17T02:05:55.722Z,65.27
2018-02-17T02:08:24.251Z,71.53
2018-02-17T02:10:52.727Z,69.47
2018-02-17T02:13:21.225Z,67.40
2018-02-17T02:15:49.730Z,66.77
2018-02-17T02:18:18.179Z,74.67
2018-02-17T02:20:46.694Z,76.90
2018-02-17T02:23:15.159Z,79.93
2018-02-17T02:25:43.679Z,89.00
2018-02-17T02:28:12.178Z,82.47
2018-02-17T02:30:40.628Z,81.70
2018-02-17T02:33:09.146Z,84.43
2018-02-17T02:35:37.630Z,82.00
2018-02-17T02:38:06.098Z,80.40
2018-02-17T02:40:34.603Z,79.67
2018-02-17T02:43:03.107Z,77.60
2018-02-17T02:45:31.599Z,75.57
2018-02-17T02:48:00.082Z,80.17
2018-02-17T02:50:28.546Z,73.60
2018-02-17T02:52:57.046Z,73.70
2018-02-17T02:55:25.574Z,70.13
2018-02-17T02:57:54.042Z,67.50
2018-02-17T03:00:22.543Z,66.77
2018-02-17T03:02:51.010Z,65.47
2018-02-17T03:05:19.569Z,75.73
2018-02-17T03:07:48.074Z,75.37
2018-02-17T03:10:16.588Z,71.10
2018-02-17T03:12:45.063Z,68.77
2018-02-17T03:15:13.601Z,58.97
2018-02-17T03:17:42.094Z,64.87
2018-02-17T03:20:10.622Z,63.27
2018-02-17T03:22:39.086Z,59.40
2018-02-17T03:25:07.561Z,63.50
2018-02-17T03:27:36.087Z,68.03
2018-02-17T03:30:04.583Z,69.47
2018-02-17T03:32:33.116Z,68.60
2018-02-17T03:35:01.635Z,66.00
2018-02-17T03:37:30.138Z,71.00
2018-02-17T03:39:58.620Z,68.87
2018-02-17T03:42:27.114Z,65.87
2018-02-17T03:44:55.559Z,63.07
2018-02-17T03:47:24.111Z,65.57
2018-02-17T03:49:52.580Z,65.37
2018-02-17T03:52:21.075Z,64.43
2018-02-17T03:54:49.607Z,58.13
2018-02-17T03:57:18.150Z,57.97
2018-02-17T03:59:46.641Z,53.07
2018-02-17T04:02:15.154Z,53.00
2018-02-17T04:04:43.645Z,50.17
2018-02-17T04:07:12.169Z,49.90
2018-02-17T04:09:40.641Z,50.47
2018-02-17T04:12:09.102Z,52.80
2018-02-17T04:14:37.601Z,54.07
2018-02-17T04:17:06.098Z,51.87
2018-02-17T04:19:34.614Z,55.03
2018-02-17T04:22:03.121Z,55.17
2018-02-17T04:24:31.618Z,54.83
2018-02-17T04:27:00.115Z,56.03
2018-02-17T04:29:28.642Z,59.17
2018-02-17T04:31:57.137Z,55.20
2018-02-17T04:34:25.603Z,59.20
2018-02-17T04:36:54.187Z,56.13
2018-02-17T04:39:22.773Z,61.80
2018-02-17T04:41:51.821Z,60.67
2018-02-17T04:44:22.144Z,63.13
2018-02-17T04:46:56.603Z,63.00
2018-02-17T04:49:25.142Z,60.03
2018-02-17T04:52:08.489Z,58.77
2018-02-17T04:54:44.436Z,56.27
2018-02-17T04:57:13.711Z,61.70
2018-02-17T05:02:47.201Z,59.87
2018-02-17T05:05:15.693Z,57.57
2018-02-17T05:07:45.192Z,57.70
2018-02-17T05:10:13.718Z,55.63
2018-02-17T05:12:42.235Z,59.70
2018-02-17T05:15:19.198Z,60.23
2018-02-17T05:20:53.714Z,56.80
2018-02-17T05:23:27.541Z,61.73
2018-02-17T05:25:58.954Z,68.30
2018-02-17T05:31:30.785Z,65.67
2018-02-17T05:33:59.398Z,61.07
2018-02-17T05:36:31.555Z,65.63
2018-02-17T05:39:00.463Z,66.07
2018-02-17T05:41:29.002Z,57.33
2018-02-17T05:43:57.506Z,73.77
2018-02-17T05:46:28.583Z,63.40
2018-02-17T05:48:57.048Z,61.93
2018-02-17T05:51:25.637Z,65.23
2018-02-17T05:53:54.097Z,64.27
2018-02-17T05:56:22.566Z,64.27
2018-02-17T05:58:51.078Z,60.13
2018-02-17T06:01:19.542Z,86.97
2018-02-17T06:03:48.046Z,89.73
2018-02-17T06:06:16.560Z,98.97
2018-02-17T06:08:45.057Z,118.50
2018-02-17T06:11:13.595Z,111.40
2018-02-17T06:13:42.111Z,96.87
2018-02-17T06:16:10.611Z,88.57
2018-02-17T06:18:39.087Z,64.77
2018-02-17T06:21:07.594Z,67.83
2018-02-17T06:23:36.098Z,120.33
2018-02-17T06:26:04.602Z,93.80
2018-02-17T06:28:33.078Z,103.40
2018-02-17T06:31:01.585Z,109.13
2018-02-17T06:33:30.099Z,101.30
2018-02-17T06:35:58.601Z,121.73
2018-02-17T06:38:27.113Z,113.83
2018-02-17T06:40:55.619Z,107.10
2018-02-17T06:43:24.134Z,114.60
2018-02-17T06:45:52.619Z,93.83
2018-02-17T06:48:21.136Z,84.70
2018-02-17T06:50:49.642Z,66.93
2018-02-17T06:53:18.152Z,67.77
2018-02-17T06:55:46.662Z,62.57
2018-02-17T06:58:15.163Z,67.07
2018-02-17T07:00:43.673Z,82.93
2018-02-17T07:03:12.178Z,82.37
2018-02-17T07:05:40.674Z,59.20
2018-02-17T07:08:09.119Z,64.53
2018-02-17T07:10:37.617Z,55.37
2018-02-17T07:13:06.128Z,57.47
2018-02-17T07:15:34.591Z,64.97
2018-02-17T07:18:03.092Z,59.23
2018-02-17T07:20:31.545Z,57.87
2018-02-17T07:23:00.064Z,64.83
2018-02-17T07:25:28.554Z,54.20
2018-02-17T07:27:57.029Z,56.17
2018-02-17T07:30:25.529Z,53.00
2018-02-17T07:32:54.014Z,57.37
2018-02-17T07:35:22.474Z,57.47
2018-02-17T07:37:50.939Z,52.60
2018-02-17T07:40:19.502Z,56.57
2018-02-17T07:42:47.932Z,58.07
2018-02-17T07:45:16.399Z,51.03
2018-02-17T07:47:44.906Z,57.93
2018-02-17T07:50:13.405Z,55.53
2018-02-17T07:52:41.870Z,52.97
2018-02-17T07:55:10.376Z,55.53
2018-02-17T07:57:38.834Z,57.30
2018-02-17T08:00:07.314Z,51.10
2018-02-17T08:02:35.830Z,54.47
2018-02-17T08:05:04.413Z,61.40
2018-02-17T08:07:32.878Z,57.37
2018-02-17T08:10:01.353Z,61.03
2018-02-17T08:12:29.853Z,63.03
2018-02-17T08:14:58.331Z,64.87
2018-02-17T08:17:26.812Z,67.90
2018-02-17T08:19:55.333Z,68.47
2018-02-17T08:22:23.840Z,59.47
2018-02-17T08:24:52.310Z,61.67
2018-02-17T08:27:20.810Z,66.87
2018-02-17T08:29:49.274Z,66.27
2018-02-17T08:32:17.781Z,60.87
2018-02-17T08:34:46.260Z,65.77
2018-02-17T08:37:14.759Z,60.60
2018-02-17T08:39:43.250Z,63.03
2018-02-17T08:42:11.766Z,68.40
2018-02-17T08:44:40.226Z,74.80
2018-02-17T08:47:08.737Z,79.00
2018-02-17T08:49:37.220Z,75.33
2018-02-17T08:52:05.773Z,73.27
2018-02-17T08:54:34.286Z,67.27
2018-02-17T08:57:02.795Z,67.90
2018-02-17T08:59:31.254Z,63.63
2018-02-17T09:01:59.750Z,59.70
2018-02-17T09:04:28.214Z,50.40
2018-02-17T09:06:56.723Z,44.40
2018-02-17T09:09:25.181Z,44.10
2018-02-17T09:11:53.706Z,42.57
2018-02-17T09:14:22.198Z,46.83
2018-02-17T09:16:50.666Z,44.50
2018-02-17T09:19:19.166Z,44.13
2018-02-17T09:21:47.671Z,43.67
2018-02-17T09:24:16.152Z,43.70
2018-02-17T09:26:44.654Z,45.10
2018-02-17T09:29:13.122Z,48.37
2018-02-17T09:31:41.626Z,45.97
2018-02-17T09:34:10.086Z,43.37
2018-02-17T09:36:38.555Z,36.40
2018-02-17T09:39:07.107Z,39.17
2018-02-17T09:41:35.566Z,39.00
2018-02-17T09:44:04.064Z,38.13
2018-02-17T09:46:32.542Z,36.40
2018-02-17T09:49:00.999Z,38.53
2018-02-17T09:51:29.530Z,39.40
2018-02-17T09:53:58.078Z,35.93
2018-02-17T09:56:26.538Z,37.73
2018-02-17T09:58:54.997Z,41.33
2018-02-17T10:01:24.296Z,42.97
2018-02-17T10:03:52.767Z,39.53
2018-02-17T10:06:21.245Z,39.10
2018-02-17T10:08:49.750Z,42.60
2018-02-17T10:11:18.224Z,39.70
2018-02-17T10:13:46.722Z,40.20
2018-02-17T10:16:15.187Z,35.63
2018-02-17T10:18:43.683Z,39.17
2018-02-17T10:21:12.161Z,38.30
2018-02-17T10:23:40.682Z,36.07
2018-02-17T10:26:09.154Z,36.37
2018-02-17T10:28:37.678Z,38.23
2018-02-17T10:31:06.213Z,38.53
2018-02-17T10:33:34.683Z,36.93
2018-02-17T10:36:03.150Z,38.07
2018-02-17T10:38:31.658Z,40.77
2018-02-17T10:41:00.158Z,35.97
2018-02-17T10:43:28.624Z,35.87
2018-02-17T10:45:57.130Z,34.90
2018-02-17T10:48:25.602Z,33.87
2018-02-17T10:50:54.110Z,34.17
2018-02-17T10:53:22.620Z,33.07
2018-02-17T10:55:51.086Z,33.60
2018-02-17T10:58:19.550Z,29.47
2018-02-17T11:00:48.058Z,35.70
2018-02-17T11:03:16.542Z,32.30
2018-02-17T11:05:45.020Z,29.43
2018-02-17T11:08:13.519Z,29.63
2018-02-17T11:10:41.995Z,29.50
2018-02-17T11:13:10.494Z,29.37
2018-02-17T11:15:38.964Z,29.23
2018-02-17T11:18:07.465Z,29.40
2018-02-17T11:20:35.929Z,28.53
2018-02-17T11:23:04.465Z,31.87
2018-02-17T11:25:32.938Z,31.20
2018-02-17T11:28:01.420Z,35.23
2018-02-17T11:30:29.935Z,32.83
2018-02-17T11:32:58.398Z,30.63
2018-02-17T11:35:26.858Z,35.83
2018-02-17T11:37:55.358Z,41.67
2018-02-17T11:40:23.870Z,48.67
2018-02-17T11:42:52.335Z,65.30
2018-02-17T11:45:20.850Z,73.53
2018-02-17T11:47:49.318Z,66.23
2018-02-17T11:50:17.792Z,66.60
2018-02-17T11:52:46.324Z,66.80
2018-02-17T11:55:14.810Z,64.67
2018-02-17T11:57:43.342Z,58.10
2018-02-17T12:00:11.810Z,61.70
2018-02-17T12:02:40.318Z,57.47
2018-02-17T12:05:08.783Z,60.17
2018-02-17T12:07:37.290Z,57.23
2018-02-17T12:10:05.794Z,55.07
2018-02-17T12:12:34.326Z,50.33
2018-02-17T12:15:02.853Z,51.37
2018-02-17T12:17:31.319Z,55.60
2018-02-17T12:19:59.836Z,46.60
2018-02-17T12:22:28.351Z,44.07
2018-02-17T12:24:56.814Z,42.63
2018-02-17T12:27:25.275Z,42.17
2018-02-17T12:29:53.774Z,43.27
2018-02-17T12:32:22.248Z,44.70
2018-02-17T12:34:50.754Z,38.03
2018-02-17T12:37:19.262Z,43.33
2018-02-17T12:39:47.797Z,47.57
2018-02-17T12:42:16.265Z,45.60
2018-02-17T12:44:44.762Z,45.90
2018-02-17T12:47:13.266Z,44.90
2018-02-17T12:49:41.729Z,42.40
2018-02-17T12:52:10.195Z,41.27
2018-02-17T12:54:38.694Z,37.60
2018-02-17T12:57:07.143Z,36.53
2018-02-17T12:59:35.635Z,38.17
2018-02-17T13:02:04.102Z,29.80
2018-02-17T13:04:32.580Z,30.83
2018-02-17T13:07:01.078Z,34.30
2018-02-17T13:09:29.576Z,34.40
2018-02-17T13:11:58.049Z,33.80
2018-02-17T13:14:26.556Z,30.57
2018-02-17T13:16:55.139Z,30.63
2018-02-17T13:19:23.618Z,33.57
2018-02-17T13:21:52.085Z,33.37
2018-02-17T13:24:20.554Z,33.80
2018-02-17T13:26:49.061Z,31.17
2018-02-17T13:29:17.531Z,34.13
2018-02-17T13:31:46.059Z,32.07
2018-02-17T13:34:14.526Z,35.27
2018-02-17T13:36:43.038Z,33.07
2018-02-17T13:39:11.502Z,40.70
2018-02-17T13:41:40.007Z,32.20
2018-02-17T13:44:08.521Z,33.33
2018-02-17T13:46:37.002Z,34.20
2018-02-17T13:49:05.510Z,36.07
2018-02-17T13:51:33.978Z,37.30
2018-02-17T13:54:02.478Z,31.90
2018-02-17T13:56:30.959Z,30.10
2018-02-17T13:58:59.478Z,30.47
2018-02-17T14:01:27.975Z,28.70
2018-02-17T14:03:56.450Z,24.87
2018-02-17T14:06:25.003Z,30.43
2018-02-17T14:08:53.488Z,29.93
2018-02-17T14:11:22.002Z,27.17
2018-02-17T14:13:50.474Z,23.47
2018-02-17T14:16:18.954Z,26.63
2018-02-17T14:18:47.474Z,27.63
2018-02-17T14:21:16.006Z,29.87
2018-02-17T14:23:44.483Z,26.67
2018-02-17T14:26:12.953Z,26.33
2018-02-17T14:28:41.437Z,26.83
2018-02-17T14:31:09.906Z,29.10
2018-02-17T14:33:38.401Z,29.47
2018-02-17T14:36:06.870Z,25.73
2018-02-17T14:38:35.390Z,29.37
2018-02-17T14:41:03.898Z,24.60
2018-02-17T14:43:32.407Z,30.10
2018-02-17T14:46:00.911Z,25.43
2018-02-17T14:48:29.387Z,28.47
2018-02-17T14:50:57.901Z,31.20
2018-02-17T14:53:26.370Z,31.33
2018-02-17T14:55:54.838Z,27.87
2018-02-17T14:58:23.372Z,29.70
2018-02-17T15:00:51.884Z,29.43
2018-02-17T15:03:20.403Z,26.97
2018-02-17T15:05:48.902Z,30.37
2018-02-17T15:08:17.406Z,32.07
2018-02-17T15:10:45.887Z,35.17
2018-02-17T15:13:14.386Z,33.77
2018-02-17T15:15:42.896Z,33.20
2018-02-17T15:18:11.392Z,36.70
2018-02-17T15:20:39.900Z,34.40
2018-02-17T15:23:08.376Z,38.20
2018-02-17T15:25:36.874Z,43.13
2018-02-17T15:28:05.330Z,39.10
2018-02-17T15:30:33.843Z,40.30
2018-02-17T15:33:02.306Z,39.90
2018-02-17T15:35:30.778Z,45.90
2018-02-17T15:37:59.359Z,43.93
2018-02-17T15:40:27.934Z,47.50
2018-02-17T15:42:56.398Z,50.90
2018-02-17T15:45:24.881Z,50.43
2018-02-17T15:47:53.379Z,49.00
2018-02-17T15:50:21.887Z,48.00
2018-02-17T15:52:50.385Z,45.87
2018-02-17T15:55:18.862Z,45.70
2018-02-17T15:57:47.369Z,47.77
2018-02-17T16:00:15.830Z,51.73
2018-02-17T16:02:44.333Z,51.57
2018-02-17T16:05:12.791Z,48.83
2018-02-17T16:07:41.303Z,50.80
2018-02-17T16:10:09.808Z,50.00
2018-02-17T16:12:38.312Z,47.53
2018-02-17T16:15:06.811Z,48.63
2018-02-17T16:17:35.278Z,47.50
2018-02-17T16:20:03.846Z,44.07
2018-02-17T16:22:32.334Z,48.60
2018-02-17T16:25:00.823Z,43.10
2018-02-17T16:27:29.330Z,44.57
2018-02-17T16:29:57.834Z,45.67
2018-02-17T16:32:26.334Z,45.40
2018-02-17T16:34:54.798Z,62.43
2018-02-17T16:37:23.318Z,80.07
2018-02-17T16:39:51.822Z,58.87
2018-02-17T16:42:20.282Z,55.43
2018-02-17T16:44:48.752Z,45.90
2018-02-17T16:47:17.269Z,46.97
2018-02-17T16:49:45.748Z,48.30
2018-02-17T16:52:14.305Z,58.53
2018-02-17T16:54:42.787Z,49.17
2018-02-17T16:57:11.300Z,53.40
2018-02-17T16:59:39.762Z,57.47
2018-02-17T17:02:08.274Z,52.10
2018-02-17T17:04:36.738Z,53.20
2018-02-17T17:07:05.220Z,58.63
2018-02-17T17:09:33.722Z,58.07
2018-02-17T17:12:02.242Z,53.27
2018-02-17T17:14:30.734Z,55.67
2018-02-17T17:16:59.202Z,71.70
2018-02-17T17:19:27.702Z,66.40
2018-02-17T17:21:56.171Z,65.83
2018-02-17T17:24:24.689Z,62.37
2018-02-17T17:26:53.214Z,64.93
2018-02-17T17:29:21.746Z,55.00
2018-02-17T17:31:50.219Z,63.23
2018-02-17T17:34:18.694Z,65.20
2018-02-17T17:36:47.212Z,68.70
2018-02-17T17:39:15.724Z,69.10
2018-02-17T17:41:44.222Z,64.73
2018-02-17T17:44:12.742Z,61.50
2018-02-17T17:46:41.214Z,63.37
2018-02-17T17:49:09.720Z,69.80
2018-02-17T17:51:38.202Z,72.30
2018-02-17T17:54:06.650Z,82.13
2018-02-17T17:56:35.167Z,72.23
2018-02-17T17:59:03.630Z,73.00
2018-02-17T18:01:32.162Z,70.13
2018-02-17T18:04:00.625Z,68.90
2018-02-17T18:06:29.129Z,63.73
2018-02-17T18:08:57.659Z,76.30
2018-02-17T18:11:26.135Z,75.07
2018-02-17T18:13:54.634Z,66.10
2018-02-17T18:16:23.106Z,68.30
2018-02-17T18:18:51.607Z,74.60
2018-02-17T18:21:20.135Z,75.50
2018-02-17T18:23:48.625Z,104.03
2018-02-17T18:26:17.095Z,98.93
2018-02-17T18:28:45.598Z,99.40
2018-02-17T18:31:14.047Z,73.70
2018-02-17T18:33:42.570Z,80.37
2018-02-17T18:36:11.052Z,82.97
2018-02-17T18:38:39.590Z,77.47
2018-02-17T18:41:08.062Z,86.27
2018-02-17T18:43:36.582Z,76.03
2018-02-17T18:46:05.055Z,75.77
2018-02-17T18:48:33.568Z,78.73
2018-02-17T18:51:02.084Z,100.17
2018-02-17T18:53:30.586Z,95.27
2018-02-17T18:55:59.051Z,96.63
2018-02-17T18:58:27.557Z,96.10
2018-02-17T19:00:56.024Z,95.63
2018-02-17T19:03:24.520Z,90.77
2018-02-17T19:05:53.036Z,95.00
2018-02-17T19:08:21.503Z,76.30
2018-02-17T19:10:50.032Z,82.93
2018-02-17T19:13:18.513Z,83.90
2018-02-17T19:15:47.015Z,84.67
2018-02-17T19:18:15.492Z,85.10
2018-02-17T19:20:43.994Z,90.83
2018-02-17T19:23:12.462Z,84.17
2018-02-17T19:25:40.972Z,94.73
2018-02-17T19:28:09.479Z,81.47
2018-02-17T19:30:37.978Z,81.63
2018-02-17T19:33:06.474Z,86.90
2018-02-17T19:35:34.944Z,94.67
2018-02-17T19:38:03.442Z,89.67
2018-02-17T19:40:32.785Z,94.30
2018-02-17T19:43:01.291Z,91.50
2018-02-17T19:45:29.768Z,95.03
2018-02-17T19:47:58.283Z,88.03
2018-02-17T19:50:26.766Z,81.73
2018-02-17T19:52:55.231Z,83.30
2018-02-17T19:55:23.754Z,90.53
2018-02-17T19:57:52.240Z,86.23
2018-02-17T20:00:20.742Z,84.20
2018-02-17T20:02:49.206Z,87.87
2018-02-17T20:05:17.709Z,86.63
2018-02-17T20:07:46.206Z,81.33
2018-02-17T20:10:14.702Z,84.67
2018-02-17T20:12:43.213Z,84.43
2018-02-17T20:15:11.721Z,83.83
2018-02-17T20:17:40.271Z,93.03
2018-02-17T20:20:08.736Z,93.53
2018-02-17T20:22:37.220Z,82.63
2018-02-17T20:25:05.732Z,87.33
2018-02-17T20:27:34.198Z,85.73
2018-02-17T20:30:02.707Z,94.93
2018-02-17T20:32:31.215Z,91.27
2018-02-17T20:34:59.738Z,92.00
2018-02-17T20:37:28.238Z,94.40
2018-02-17T20:39:56.724Z,92.73
2018-02-17T20:42:25.246Z,92.30
2018-02-17T20:44:53.691Z,84.80
2018-02-17T20:47:22.200Z,83.37
2018-02-17T20:49:50.680Z,93.97
2018-02-17T20:52:19.178Z,87.63
2018-02-17T20:54:47.690Z,94.23
2018-02-17T20:57:16.197Z,86.63
2018-02-17T20:59:44.700Z,94.23
2018-02-17T21:02:13.174Z,91.60
2018-02-17T21:04:41.701Z,92.30
2018-02-17T21:07:10.158Z,90.03
2018-02-17T21:09:38.666Z,85.70
2018-02-17T21:12:07.133Z,89.53
2018-02-17T21:14:35.641Z,86.07
2018-02-17T21:17:04.122Z,92.30
2018-02-17T21:19:32.594Z,86.43
2018-02-17T21:22:01.066Z,91.73
2018-02-17T21:24:29.534Z,88.80
2018-02-17T21:26:58.030Z,94.63
2018-02-17T21:29:26.506Z,82.83
2018-02-17T21:31:55.002Z,84.07
2018-02-17T21:34:23.525Z,83.17
2018-02-17T21:36:52.033Z,84.60
2018-02-17T21:39:20.538Z,83.50
2018-02-17T21:41:49.006Z,91.73
2018-02-17T21:44:17.510Z,86.90
2018-02-17T21:46:45.970Z,89.40
2018-02-17T21:49:14.504Z,91.20
2018-02-17T21:51:42.970Z,91.87
2018-02-17T21:54:11.467Z,88.13
2018-02-17T21:56:39.970Z,87.03
2018-02-17T21:59:08.477Z,84.47
2018-02-17T22:01:36.967Z,87.23
2018-02-17T22:04:05.465Z,84.37
2018-02-17T22:06:34.019Z,85.43
2018-02-17T22:09:02.538Z,91.67
2018-02-17T22:11:31.042Z,88.53
2018-02-17T22:13:59.546Z,107.37
2018-02-17T22:16:28.024Z,93.13
2018-02-17T22:18:56.531Z,104.33
2018-02-17T22:21:25.002Z,100.70
2018-02-17T22:23:53.462Z,94.27
2018-02-17T22:26:21.962Z,95.40
2018-02-17T22:28:50.427Z,106.23
2018-02-17T22:31:18.938Z,97.20
2018-02-17T22:33:47.453Z,102.07
2018-02-17T22:36:15.929Z,98.97
2018-02-17T22:38:44.442Z,102.27
2018-02-17T22:41:12.920Z,94.70
2018-02-17T22:43:41.437Z,97.43
2018-02-17T22:46:09.901Z,94.27
2018-02-17T22:48:38.410Z,93.97
2018-02-17T22:51:06.906Z,98.63
2018-02-17T22:53:35.383Z,88.90
2018-02-17T22:56:03.877Z,89.30
2018-02-17T22:58:32.366Z,92.57
2018-02-17T23:01:00.875Z,97.33
2018-02-17T23:03:29.341Z,92.60
2018-02-17T23:05:57.858Z,93.07
2018-02-17T23:08:26.339Z,89.47
2018-02-17T23:10:54.820Z,87.03
2018-02-17T23:13:23.327Z,88.23
2018-02-17T23:15:51.809Z,89.10
2018-02-17T23:18:20.315Z,87.87
2018-02-17T23:20:48.821Z,86.67
2018-02-17T23:23:17.323Z,90.00
2018-02-17T23:25:45.861Z,82.13
2018-02-17T23:28:14.414Z,85.23
2018-02-17T23:30:42.883Z,83.83
2018-02-17T23:33:11.361Z,81.37
2018-02-17T23:35:39.873Z,87.10
2018-02-17T23:38:08.335Z,73.10
2018-02-17T23:40:36.909Z,75.33
2018-02-17T23:43:05.411Z,67.23
2018-02-17T23:45:33.874Z,60.77
2018-02-17T23:48:02.338Z,67.93
2018-02-17T23:50:30.846Z,71.87
2018-02-17T23:52:59.311Z,83.77
2018-02-17T23:55:27.810Z,91.83
2018-02-17T23:57:56.270Z,98.30
